Kingston Norman Rogers Airport
CYGK : now visible

Airfield :











YOU CAN JOIN US ON...

 
LOGIN :

Register | Disclaimer

   EN    FR    IT 

 









Legend :    VFR   Marginal VFR   IFR   Intensive IFR   Very Intensive IFR
Visi :
Ceiling :
>= 8 km
>= 3000ft
5 to 8 km
1000 to 3000 ft
1500m to 5 km
500 to 1000 ft
800 to 1500m
200 to 500 ft
< 800m
< 200 ft
Symbols :   Thunderstorms  Fog  Heavy snow  Heavy precipitations  Wind > 20 kt






- Airport Elevation : 305 ft
- IATA code : YGK


CYGK - Kingston Norman Rogers

CURRENT METAR :
  • 211600Z 18025G31KT 12SM -RA FEW008 BKN035 OVC080 16/15 A2998 RMK SF2SC5AC1 SLP156 DENSITY ALT 400FT

EXPIRED METARs :
  • 211500Z 18022G28KT 8SM -RA SCT008 BKN045 OVC090 15/15 A3000 RMK SF3SC3AC2 SLP161 DENSITY ALT 400FT
  • 211400Z 18021G30KT 10SM -RA SCT006 BKN040 OVC100 15/14 A3001 RMK SF3SC2AC3 SLP164

TAF AMD TAF CYGK
Valid from the 21 at 16:00 until the 22 at 02:00 UTC


211606Z 2116/2202 20020G30KT P6SM -RA FEW008 OVC030
TEMPO 2116/2120 5SM -RA BR BKN008 OVC030
FM212000 25015G25KT P6SM OVC012
TEMPO 2120/2123 BKN025
FM212300 30012KT P6SM BKN020
TEMPO 2123/2202 SCT020 RMK NXT FCST BY 212000Z
CZYZ FIR / North America



MET'MAP, your aeronautical weather chart ! - Copyright ORBIFLY December 2007 - Disclaimer

ORBIFLY MET'MAP TEAM :

Programming & Development : Alexandra Zaïnal
Concept & original design : Baudouin d'Aumeries
Assistance for programming : Marc-Olivier Méhu
Technical & hardware support : Manuel Goepfert

Contact : metmap@orbifly.com




SOURCES & CREDITS :

   NOAA       Earth
Advisory